sensor_id;sensor_type;location;lat;lon;timestamp;P1;durP1;ratioP1;P2;durP2;ratioP2
47529;SDS011;33272;51.922;7.730;2023-06-22T00:01:16;6.67;;;6.00;;
47529;SDS011;33272;51.922;7.730;2023-06-22T00:03:43;7.73;;;6.87;;
47529;SDS011;33272;51.922;7.730;2023-06-22T00:06:12;8.73;;;6.50;;
47529;SDS011;33272;51.922;7.730;2023-06-22T00:08:39;8.17;;;6.50;;
47529;SDS011;33272;51.922;7.730;2023-06-22T00:11:06;11.43;;;7.33;;
47529;SDS011;33272;51.922;7.730;2023-06-22T00:13:33;8.40;;;7.00;;
47529;SDS011;33272;51.922;7.730;2023-06-22T00:16:00;8.63;;;7.00;;
47529;SDS011;33272;51.922;7.730;2023-06-22T00:18:27;8.63;;;7.67;;
47529;SDS011;33272;51.922;7.730;2023-06-22T00:20:55;9.70;;;8.00;;
47529;SDS011;33272;51.922;7.730;2023-06-22T00:23:25;9.30;;;7.70;;
47529;SDS011;33272;51.922;7.730;2023-06-22T00:25:52;8.70;;;7.87;;
47529;SDS011;33272;51.922;7.730;2023-06-22T00:28:19;11.77;;;7.97;;
47529;SDS011;33272;51.922;7.730;2023-06-22T00:30:46;9.30;;;8.30;;
47529;SDS011;33272;51.922;7.730;2023-06-22T00:33:14;10.17;;;7.53;;
47529;SDS011;33272;51.922;7.730;2023-06-22T00:35:41;8.60;;;7.80;;
47529;SDS011;33272;51.922;7.730;2023-06-22T00:38:08;9.07;;;8.17;;
47529;SDS011;33272;51.922;7.730;2023-06-22T00:40:37;8.17;;;7.37;;
47529;SDS011;33272;51.922;7.730;2023-06-22T00:43:04;11.43;;;7.90;;
47529;SDS011;33272;51.922;7.730;2023-06-22T00:45:32;8.13;;;7.33;;
47529;SDS011;33272;51.922;7.730;2023-06-22T00:47:59;10.23;;;8.13;;
47529;SDS011;33272;51.922;7.730;2023-06-22T00:50:28;10.33;;;8.20;;
47529;SDS011;33272;51.922;7.730;2023-06-22T00:52:59;9.77;;;7.80;;
47529;SDS011;33272;51.922;7.730;2023-06-22T00:55:33;8.67;;;7.87;;
47529;SDS011;33272;51.922;7.730;2023-06-22T00:58:03;9.23;;;8.33;;
47529;SDS011;33272;51.922;7.730;2023-06-22T01:00:35;9.53;;;8.10;;
47529;SDS011;33272;51.922;7.730;2023-06-22T01:03:02;9.33;;;8.40;;
47529;SDS011;33272;51.922;7.730;2023-06-22T01:05:34;9.63;;;8.63;;
47529;SDS011;33272;51.922;7.730;2023-06-22T01:08:11;9.33;;;8.43;;
47529;SDS011;33272;51.922;7.730;2023-06-22T01:10:47;11.40;;;9.43;;
47529;SDS011;33272;51.922;7.730;2023-06-22T01:13:21;9.77;;;8.37;;
47529;SDS011;33272;51.922;7.730;2023-06-22T01:16:00;9.37;;;8.30;;
47529;SDS011;33272;51.922;7.730;2023-06-22T01:18:30;9.93;;;8.90;;
47529;SDS011;33272;51.922;7.730;2023-06-22T01:21:01;10.23;;;8.60;;
47529;SDS011;33272;51.922;7.730;2023-06-22T01:23:37;9.50;;;8.60;;
47529;SDS011;33272;51.922;7.730;2023-06-22T01:26:18;10.53;;;8.70;;
47529;SDS011;33272;51.922;7.730;2023-06-22T01:28:54;10.40;;;9.30;;
47529;SDS011;33272;51.922;7.730;2023-06-22T01:31:23;10.73;;;9.73;;
47529;SDS011;33272;51.922;7.730;2023-06-22T01:33:55;10.07;;;8.63;;
47529;SDS011;33272;51.922;7.730;2023-06-22T01:36:25;10.10;;;9.10;;
47529;SDS011;33272;51.922;7.730;2023-06-22T01:38:53;10.43;;;9.43;;
47529;SDS011;33272;51.922;7.730;2023-06-22T01:41:20;10.20;;;9.20;;
47529;SDS011;33272;51.922;7.730;2023-06-22T01:43:48;9.97;;;8.57;;
47529;SDS011;33272;51.922;7.730;2023-06-22T01:46:17;9.87;;;8.90;;
47529;SDS011;33272;51.922;7.730;2023-06-22T01:48:45;14.27;;;9.67;;
47529;SDS011;33272;51.922;7.730;2023-06-22T01:51:13;10.30;;;9.30;;
47529;SDS011;33272;51.922;7.730;2023-06-22T01:53:40;10.43;;;9.33;;
47529;SDS011;33272;51.922;7.730;2023-06-22T01:56:07;12.13;;;10.13;;
47529;SDS011;33272;51.922;7.730;2023-06-22T01:58:35;11.27;;;10.17;;
47529;SDS011;33272;51.922;7.730;2023-06-22T02:01:12;10.43;;;9.27;;
47529;SDS011;33272;51.922;7.730;2023-06-22T02:03:50;11.30;;;10.10;;
47529;SDS011;33272;51.922;7.730;2023-06-22T02:06:24;11.23;;;10.03;;
47529;SDS011;33272;51.922;7.730;2023-06-22T02:09:02;11.17;;;10.07;;
47529;SDS011;33272;51.922;7.730;2023-06-22T02:11:34;11.93;;;10.13;;
47529;SDS011;33272;51.922;7.730;2023-06-22T02:14:03;12.77;;;10.57;;
47529;SDS011;33272;51.922;7.730;2023-06-22T02:16:31;12.20;;;10.30;;
47529;SDS011;33272;51.922;7.730;2023-06-22T02:19:00;11.40;;;10.30;;
47529;SDS011;33272;51.922;7.730;2023-06-22T02:21:29;11.17;;;9.90;;
47529;SDS011;33272;51.922;7.730;2023-06-22T02:23:56;10.40;;;9.40;;
47529;SDS011;33272;51.922;7.730;2023-06-22T02:26:23;11.00;;;9.80;;
47529;SDS011;33272;51.922;7.730;2023-06-22T02:28:52;10.77;;;9.40;;
47529;SDS011;33272;51.922;7.730;2023-06-22T02:31:19;11.83;;;10.63;;
47529;SDS011;33272;51.922;7.730;2023-06-22T02:33:46;10.67;;;9.63;;
47529;SDS011;33272;51.922;7.730;2023-06-22T02:36:15;12.00;;;10.33;;
47529;SDS011;33272;51.922;7.730;2023-06-22T02:38:47;11.00;;;9.97;;
47529;SDS011;33272;51.922;7.730;2023-06-22T02:41:15;11.43;;;10.33;;
47529;SDS011;33272;51.922;7.730;2023-06-22T02:43:43;11.23;;;9.97;;
47529;SDS011;33272;51.922;7.730;2023-06-22T02:46:11;12.30;;;10.63;;
47529;SDS011;33272;51.922;7.730;2023-06-22T02:48:39;11.23;;;10.03;;
47529;SDS011;33272;51.922;7.730;2023-06-22T02:51:06;11.77;;;10.17;;
47529;SDS011;33272;51.922;7.730;2023-06-22T02:53:35;11.83;;;10.63;;
47529;SDS011;33272;51.922;7.730;2023-06-22T02:56:02;11.67;;;10.47;;
47529;SDS011;33272;51.922;7.730;2023-06-22T02:58:30;12.73;;;10.57;;
47529;SDS011;33272;51.922;7.730;2023-06-22T03:01:03;13.10;;;10.60;;
47529;SDS011;33272;51.922;7.730;2023-06-22T03:03:30;15.13;;;11.33;;
47529;SDS011;33272;51.922;7.730;2023-06-22T03:05:57;11.70;;;10.50;;
47529;SDS011;33272;51.922;7.730;2023-06-22T03:08:26;12.60;;;10.50;;
47529;SDS011;33272;51.922;7.730;2023-06-22T03:10:56;11.77;;;9.83;;
47529;SDS011;33272;51.922;7.730;2023-06-22T03:13:23;13.43;;;11.80;;
47529;SDS011;33272;51.922;7.730;2023-06-22T03:15:50;11.53;;;10.33;;
47529;SDS011;33272;51.922;7.730;2023-06-22T03:18:17;14.63;;;11.70;;
47529;SDS011;33272;51.922;7.730;2023-06-22T03:20:44;11.57;;;10.47;;
47529;SDS011;33272;51.922;7.730;2023-06-22T03:23:11;13.43;;;11.47;;
47529;SDS011;33272;51.922;7.730;2023-06-22T03:25:39;12.80;;;10.77;;
47529;SDS011;33272;51.922;7.730;2023-06-22T03:28:08;12.50;;;11.00;;
47529;SDS011;33272;51.922;7.730;2023-06-22T03:30:35;13.00;;;11.07;;
47529;SDS011;33272;51.922;7.730;2023-06-22T03:33:02;11.43;;;10.33;;
47529;SDS011;33272;51.922;7.730;2023-06-22T03:35:29;13.80;;;11.60;;
47529;SDS011;33272;51.922;7.730;2023-06-22T03:37:56;13.50;;;11.33;;
47529;SDS011;33272;51.922;7.730;2023-06-22T03:40:23;12.23;;;11.03;;
47529;SDS011;33272;51.922;7.730;2023-06-22T03:42:50;13.53;;;11.93;;
47529;SDS011;33272;51.922;7.730;2023-06-22T03:45:18;13.33;;;11.97;;
47529;SDS011;33272;51.922;7.730;2023-06-22T03:47:45;11.83;;;10.57;;
47529;SDS011;33272;51.922;7.730;2023-06-22T03:50:12;13.70;;;11.27;;
47529;SDS011;33272;51.922;7.730;2023-06-22T03:52:39;13.30;;;11.27;;
47529;SDS011;33272;51.922;7.730;2023-06-22T03:55:07;14.13;;;11.50;;
47529;SDS011;33272;51.922;7.730;2023-06-22T03:57:34;11.87;;;10.63;;
47529;SDS011;33272;51.922;7.730;2023-06-22T04:00:01;13.40;;;10.73;;
47529;SDS011;33272;51.922;7.730;2023-06-22T04:02:32;12.00;;;10.20;;
47529;SDS011;33272;51.922;7.730;2023-06-22T04:04:58;12.23;;;11.00;;
47529;SDS011;33272;51.922;7.730;2023-06-22T04:07:25;12.60;;;10.80;;
47529;SDS011;33272;51.922;7.730;2023-06-22T04:09:52;13.17;;;10.83;;
47529;SDS011;33272;51.922;7.730;2023-06-22T04:12:19;12.07;;;10.70;;
47529;SDS011;33272;51.922;7.730;2023-06-22T04:14:46;11.47;;;10.27;;
47529;SDS011;33272;51.922;7.730;2023-06-22T04:17:13;12.20;;;10.33;;
47529;SDS011;33272;51.922;7.730;2023-06-22T04:19:42;12.30;;;11.00;;
47529;SDS011;33272;51.922;7.730;2023-06-22T04:22:08;14.40;;;10.50;;
47529;SDS011;33272;51.922;7.730;2023-06-22T04:24:36;14.03;;;11.07;;
47529;SDS011;33272;51.922;7.730;2023-06-22T04:27:03;12.20;;;10.47;;
47529;SDS011;33272;51.922;7.730;2023-06-22T04:29:31;13.03;;;9.60;;
47529;SDS011;33272;51.922;7.730;2023-06-22T04:31:58;11.40;;;10.10;;
47529;SDS011;33272;51.922;7.730;2023-06-22T04:34:30;12.20;;;10.50;;
47529;SDS011;33272;51.922;7.730;2023-06-22T04:36:58;11.63;;;9.87;;
47529;SDS011;33272;51.922;7.730;2023-06-22T04:39:25;11.50;;;9.73;;
47529;SDS011;33272;51.922;7.730;2023-06-22T04:41:52;11.37;;;10.00;;
47529;SDS011;33272;51.922;7.730;2023-06-22T04:44:25;14.43;;;10.47;;
47529;SDS011;33272;51.922;7.730;2023-06-22T04:46:53;13.23;;;10.53;;
47529;SDS011;33272;51.922;7.730;2023-06-22T04:49:25;13.53;;;9.93;;
47529;SDS011;33272;51.922;7.730;2023-06-22T04:51:59;12.00;;;10.17;;
47529;SDS011;33272;51.922;7.730;2023-06-22T04:54:26;13.00;;;10.53;;
47529;SDS011;33272;51.922;7.730;2023-06-22T04:56:53;11.30;;;9.97;;
47529;SDS011;33272;51.922;7.730;2023-06-22T04:59:22;12.13;;;10.33;;
47529;SDS011;33272;51.922;7.730;2023-06-22T05:01:52;12.50;;;10.73;;
47529;SDS011;33272;51.922;7.730;2023-06-22T05:04:20;14.07;;;11.13;;
47529;SDS011;33272;51.922;7.730;2023-06-22T05:06:48;14.13;;;10.70;;
47529;SDS011;33272;51.922;7.730;2023-06-22T05:09:17;13.70;;;11.33;;
47529;SDS011;33272;51.922;7.730;2023-06-22T05:11:44;11.53;;;10.33;;
47529;SDS011;33272;51.922;7.730;2023-06-22T05:14:12;12.00;;;10.70;;
47529;SDS011;33272;51.922;7.730;2023-06-22T05:16:40;11.07;;;10.03;;
47529;SDS011;33272;51.922;7.730;2023-06-22T05:19:08;10.67;;;9.60;;
47529;SDS011;33272;51.922;7.730;2023-06-22T05:21:35;12.67;;;10.37;;
47529;SDS011;33272;51.922;7.730;2023-06-22T05:24:02;11.90;;;10.70;;
47529;SDS011;33272;51.922;7.730;2023-06-22T05:26:32;11.93;;;10.57;;
47529;SDS011;33272;51.922;7.730;2023-06-22T05:29:01;11.17;;;10.03;;
47529;SDS011;33272;51.922;7.730;2023-06-22T05:31:28;12.20;;;10.07;;
47529;SDS011;33272;51.922;7.730;2023-06-22T05:33:56;10.53;;;9.53;;
47529;SDS011;33272;51.922;7.730;2023-06-22T05:36:24;11.97;;;10.77;;
47529;SDS011;33272;51.922;7.730;2023-06-22T05:38:51;11.13;;;9.37;;
47529;SDS011;33272;51.922;7.730;2023-06-22T05:41:19;10.63;;;9.63;;
47529;SDS011;33272;51.922;7.730;2023-06-22T05:43:47;10.93;;;9.83;;
47529;SDS011;33272;51.922;7.730;2023-06-22T05:46:14;10.63;;;9.53;;
47529;SDS011;33272;51.922;7.730;2023-06-22T05:48:42;9.80;;;8.90;;
47529;SDS011;33272;51.922;7.730;2023-06-22T05:51:09;10.30;;;9.30;;
47529;SDS011;33272;51.922;7.730;2023-06-22T05:53:36;10.07;;;9.07;;
47529;SDS011;33272;51.922;7.730;2023-06-22T05:56:03;10.87;;;9.77;;
47529;SDS011;33272;51.922;7.730;2023-06-22T05:58:30;11.20;;;9.70;;
47529;SDS011;33272;51.922;7.730;2023-06-22T06:00:58;12.57;;;10.80;;
47529;SDS011;33272;51.922;7.730;2023-06-22T06:03:25;10.87;;;9.77;;
47529;SDS011;33272;51.922;7.730;2023-06-22T06:05:53;10.93;;;9.83;;
47529;SDS011;33272;51.922;7.730;2023-06-22T06:08:20;14.70;;;10.30;;
47529;SDS011;33272;51.922;7.730;2023-06-22T06:10:47;20.07;;;10.60;;
47529;SDS011;33272;51.922;7.730;2023-06-22T06:13:15;11.70;;;9.67;;
47529;SDS011;33272;51.922;7.730;2023-06-22T06:15:42;13.93;;;9.73;;
47529;SDS011;33272;51.922;7.730;2023-06-22T06:18:10;11.67;;;9.70;;
47529;SDS011;33272;51.922;7.730;2023-06-22T06:20:37;11.20;;;10.03;;
47529;SDS011;33272;51.922;7.730;2023-06-22T06:23:04;10.47;;;9.07;;
47529;SDS011;33272;51.922;7.730;2023-06-22T06:25:31;10.73;;;8.73;;
47529;SDS011;33272;51.922;7.730;2023-06-22T06:27:58;12.20;;;9.47;;
47529;SDS011;33272;51.922;7.730;2023-06-22T06:30:25;11.40;;;9.23;;
47529;SDS011;33272;51.922;7.730;2023-06-22T06:32:52;11.67;;;8.87;;
47529;SDS011;33272;51.922;7.730;2023-06-22T06:35:20;10.80;;;9.70;;
47529;SDS011;33272;51.922;7.730;2023-06-22T06:37:48;10.77;;;9.50;;
47529;SDS011;33272;51.922;7.730;2023-06-22T06:40:16;10.83;;;9.73;;
47529;SDS011;33272;51.922;7.730;2023-06-22T06:42:45;11.33;;;10.23;;
47529;SDS011;33272;51.922;7.730;2023-06-22T06:45:15;11.00;;;9.87;;
47529;SDS011;33272;51.922;7.730;2023-06-22T06:47:45;11.00;;;9.90;;
47529;SDS011;33272;51.922;7.730;2023-06-22T06:50:12;11.53;;;10.33;;
47529;SDS011;33272;51.922;7.730;2023-06-22T06:52:41;11.93;;;9.80;;
47529;SDS011;33272;51.922;7.730;2023-06-22T06:55:08;13.33;;;9.70;;
47529;SDS011;33272;51.922;7.730;2023-06-22T06:57:37;11.67;;;10.30;;
47529;SDS011;33272;51.922;7.730;2023-06-22T07:00:05;10.83;;;9.73;;
47529;SDS011;33272;51.922;7.730;2023-06-22T07:02:38;10.73;;;9.40;;
47529;SDS011;33272;51.922;7.730;2023-06-22T07:05:07;11.33;;;9.80;;
47529;SDS011;33272;51.922;7.730;2023-06-22T07:07:34;11.70;;;10.40;;
47529;SDS011;33272;51.922;7.730;2023-06-22T07:10:03;12.13;;;10.87;;
47529;SDS011;33272;51.922;7.730;2023-06-22T07:12:33;11.23;;;9.90;;
47529;SDS011;33272;51.922;7.730;2023-06-22T07:15:03;12.30;;;11.03;;
47529;SDS011;33272;51.922;7.730;2023-06-22T07:17:33;14.07;;;11.13;;
47529;SDS011;33272;51.922;7.730;2023-06-22T07:20:00;12.40;;;11.03;;
47529;SDS011;33272;51.922;7.730;2023-06-22T07:22:32;11.67;;;10.33;;
47529;SDS011;33272;51.922;7.730;2023-06-22T07:24:59;13.73;;;11.37;;
47529;SDS011;33272;51.922;7.730;2023-06-22T07:27:30;13.60;;;12.00;;
47529;SDS011;33272;51.922;7.730;2023-06-22T07:30:00;13.87;;;12.37;;
47529;SDS011;33272;51.922;7.730;2023-06-22T07:32:27;14.43;;;12.13;;
47529;SDS011;33272;51.922;7.730;2023-06-22T07:34:54;12.57;;;11.27;;
47529;SDS011;33272;51.922;7.730;2023-06-22T07:37:21;12.67;;;11.37;;
47529;SDS011;33272;51.922;7.730;2023-06-22T07:39:48;13.47;;;12.23;;
47529;SDS011;33272;51.922;7.730;2023-06-22T07:42:18;14.50;;;11.97;;
47529;SDS011;33272;51.922;7.730;2023-06-22T07:44:47;12.90;;;11.70;;
47529;SDS011;33272;51.922;7.730;2023-06-22T07:47:16;13.73;;;12.43;;
47529;SDS011;33272;51.922;7.730;2023-06-22T07:49:43;14.13;;;12.70;;
47529;SDS011;33272;51.922;7.730;2023-06-22T07:52:10;14.77;;;12.70;;
47529;SDS011;33272;51.922;7.730;2023-06-22T07:54:37;15.70;;;12.90;;
47529;SDS011;33272;51.922;7.730;2023-06-22T07:57:04;16.43;;;12.87;;
47529;SDS011;33272;51.922;7.730;2023-06-22T07:59:33;14.47;;;12.93;;
47529;SDS011;33272;51.922;7.730;2023-06-22T08:02:01;14.30;;;12.77;;
47529;SDS011;33272;51.922;7.730;2023-06-22T08:04:29;14.07;;;11.93;;
47529;SDS011;33272;51.922;7.730;2023-06-22T08:06:57;15.43;;;12.37;;
47529;SDS011;33272;51.922;7.730;2023-06-22T08:09:24;15.87;;;12.20;;
47529;SDS011;33272;51.922;7.730;2023-06-22T08:11:52;14.80;;;12.10;;
47529;SDS011;33272;51.922;7.730;2023-06-22T08:14:20;13.93;;;12.50;;
47529;SDS011;33272;51.922;7.730;2023-06-22T08:16:47;17.37;;;12.20;;
47529;SDS011;33272;51.922;7.730;2023-06-22T08:19:16;14.03;;;12.67;;
47529;SDS011;33272;51.922;7.730;2023-06-22T08:21:44;16.83;;;12.40;;
47529;SDS011;33272;51.922;7.730;2023-06-22T08:24:11;14.90;;;12.30;;
47529;SDS011;33272;51.922;7.730;2023-06-22T08:26:38;17.27;;;12.00;;
47529;SDS011;33272;51.922;7.730;2023-06-22T08:29:05;15.07;;;12.23;;
47529;SDS011;33272;51.922;7.730;2023-06-22T08:31:32;15.23;;;12.67;;
47529;SDS011;33272;51.922;7.730;2023-06-22T08:33:59;12.87;;;11.53;;
47529;SDS011;33272;51.922;7.730;2023-06-22T08:36:28;13.43;;;11.10;;
47529;SDS011;33272;51.922;7.730;2023-06-22T08:38:57;19.13;;;13.03;;
47529;SDS011;33272;51.922;7.730;2023-06-22T08:41:26;14.13;;;12.60;;
47529;SDS011;33272;51.922;7.730;2023-06-22T08:43:53;13.63;;;12.23;;
47529;SDS011;33272;51.922;7.730;2023-06-22T08:46:20;16.80;;;12.73;;
47529;SDS011;33272;51.922;7.730;2023-06-22T08:48:56;15.37;;;12.53;;
47529;SDS011;33272;51.922;7.730;2023-06-22T08:51:23;13.67;;;12.23;;
47529;SDS011;33272;51.922;7.730;2023-06-22T08:53:51;20.40;;;12.47;;
47529;SDS011;33272;51.922;7.730;2023-06-22T08:56:18;14.37;;;12.87;;
47529;SDS011;33272;51.922;7.730;2023-06-22T08:58:45;12.53;;;11.30;;
47529;SDS011;33272;51.922;7.730;2023-06-22T09:01:12;14.93;;;12.23;;
47529;SDS011;33272;51.922;7.730;2023-06-22T09:03:40;13.77;;;12.40;;
47529;SDS011;33272;51.922;7.730;2023-06-22T09:06:07;13.97;;;11.97;;
47529;SDS011;33272;51.922;7.730;2023-06-22T09:08:35;13.37;;;11.97;;
47529;SDS011;33272;51.922;7.730;2023-06-22T09:11:03;15.13;;;12.30;;
47529;SDS011;33272;51.922;7.730;2023-06-22T09:13:30;12.63;;;11.30;;
47529;SDS011;33272;51.922;7.730;2023-06-22T09:15:59;17.53;;;12.50;;
47529;SDS011;33272;51.922;7.730;2023-06-22T09:18:26;16.00;;;12.70;;
47529;SDS011;33272;51.922;7.730;2023-06-22T09:20:53;14.23;;;11.93;;
47529;SDS011;33272;51.922;7.730;2023-06-22T09:23:21;14.67;;;11.83;;
47529;SDS011;33272;51.922;7.730;2023-06-22T09:25:48;12.57;;;11.27;;
47529;SDS011;33272;51.922;7.730;2023-06-22T09:28:16;13.33;;;11.70;;
47529;SDS011;33272;51.922;7.730;2023-06-22T09:30:43;13.33;;;12.03;;
47529;SDS011;33272;51.922;7.730;2023-06-22T09:33:11;15.00;;;13.33;;
47529;SDS011;33272;51.922;7.730;2023-06-22T09:35:38;13.10;;;11.77;;
47529;SDS011;33272;51.922;7.730;2023-06-22T09:38:05;13.87;;;12.43;;
47529;SDS011;33272;51.922;7.730;2023-06-22T09:40:32;13.20;;;11.90;;
47529;SDS011;33272;51.922;7.730;2023-06-22T09:43:04;12.83;;;11.47;;
47529;SDS011;33272;51.922;7.730;2023-06-22T09:45:33;15.30;;;12.70;;
47529;SDS011;33272;51.922;7.730;2023-06-22T09:48:00;12.90;;;11.20;;
47529;SDS011;33272;51.922;7.730;2023-06-22T09:50:27;12.13;;;10.00;;
47529;SDS011;33272;51.922;7.730;2023-06-22T09:52:54;13.57;;;10.73;;
47529;SDS011;33272;51.922;7.730;2023-06-22T09:55:20;14.47;;;11.30;;
47529;SDS011;33272;51.922;7.730;2023-06-22T09:57:48;14.60;;;11.30;;
47529;SDS011;33272;51.922;7.730;2023-06-22T10:00:16;20.33;;;11.30;;
47529;SDS011;33272;51.922;7.730;2023-06-22T10:02:45;15.07;;;11.57;;
47529;SDS011;33272;51.922;7.730;2023-06-22T10:05:12;13.30;;;11.47;;
47529;SDS011;33272;51.922;7.730;2023-06-22T10:07:40;11.83;;;10.63;;
47529;SDS011;33272;51.922;7.730;2023-06-22T10:10:09;11.73;;;10.70;;
47529;SDS011;33272;51.922;7.730;2023-06-22T10:12:37;13.53;;;10.43;;
47529;SDS011;33272;51.922;7.730;2023-06-22T10:15:08;10.53;;;9.43;;
47529;SDS011;33272;51.922;7.730;2023-06-22T10:17:36;11.57;;;10.37;;
47529;SDS011;33272;51.922;7.730;2023-06-22T10:20:05;11.37;;;10.27;;
47529;SDS011;33272;51.922;7.730;2023-06-22T10:22:37;13.33;;;10.73;;
47529;SDS011;33272;51.922;7.730;2023-06-22T10:25:05;11.07;;;10.07;;
47529;SDS011;33272;51.922;7.730;2023-06-22T10:27:34;11.67;;;10.17;;
47529;SDS011;33272;51.922;7.730;2023-06-22T10:30:01;16.87;;;10.77;;
47529;SDS011;33272;51.922;7.730;2023-06-22T10:32:30;11.00;;;9.90;;
47529;SDS011;33272;51.922;7.730;2023-06-22T10:34:57;11.33;;;10.13;;
47529;SDS011;33272;51.922;7.730;2023-06-22T10:37:25;11.37;;;10.27;;
47529;SDS011;33272;51.922;7.730;2023-06-22T10:39:52;12.73;;;10.27;;
47529;SDS011;33272;51.922;7.730;2023-06-22T10:42:19;12.20;;;10.67;;
47529;SDS011;33272;51.922;7.730;2023-06-22T10:44:46;12.20;;;10.93;;
47529;SDS011;33272;51.922;7.730;2023-06-22T10:47:13;13.07;;;11.87;;
47529;SDS011;33272;51.922;7.730;2023-06-22T10:49:40;14.83;;;12.40;;
47529;SDS011;33272;51.922;7.730;2023-06-22T10:52:08;13.60;;;11.23;;
47529;SDS011;33272;51.922;7.730;2023-06-22T10:54:36;12.97;;;11.60;;
47529;SDS011;33272;51.922;7.730;2023-06-22T10:57:04;14.83;;;11.50;;
47529;SDS011;33272;51.922;7.730;2023-06-22T10:59:32;12.83;;;11.53;;
47529;SDS011;33272;51.922;7.730;2023-06-22T11:01:59;12.20;;;11.00;;
47529;SDS011;33272;51.922;7.730;2023-06-22T11:04:26;13.30;;;12.00;;
47529;SDS011;33272;51.922;7.730;2023-06-22T11:06:53;15.60;;;12.60;;
47529;SDS011;33272;51.922;7.730;2023-06-22T11:09:21;14.47;;;12.80;;
47529;SDS011;33272;51.922;7.730;2023-06-22T11:11:50;13.40;;;11.13;;
47529;SDS011;33272;51.922;7.730;2023-06-22T11:14:18;12.87;;;11.57;;
47529;SDS011;33272;51.922;7.730;2023-06-22T11:16:45;16.63;;;10.97;;
47529;SDS011;33272;51.922;7.730;2023-06-22T11:19:12;15.87;;;11.97;;
47529;SDS011;33272;51.922;7.730;2023-06-22T11:21:39;14.70;;;11.37;;
47529;SDS011;33272;51.922;7.730;2023-06-22T11:24:06;12.10;;;10.90;;
47529;SDS011;33272;51.922;7.730;2023-06-22T11:26:33;15.93;;;12.33;;
47529;SDS011;33272;51.922;7.730;2023-06-22T11:29:02;14.47;;;10.83;;
47529;SDS011;33272;51.922;7.730;2023-06-22T11:31:30;12.77;;;11.37;;
47529;SDS011;33272;51.922;7.730;2023-06-22T11:33:57;12.83;;;11.53;;
47529;SDS011;33272;51.922;7.730;2023-06-22T11:36:24;19.10;;;10.90;;
47529;SDS011;33272;51.922;7.730;2023-06-22T11:38:52;17.07;;;10.10;;
47529;SDS011;33272;51.922;7.730;2023-06-22T11:41:19;12.20;;;10.23;;
47529;SDS011;33272;51.922;7.730;2023-06-22T11:43:45;12.80;;;10.40;;
47529;SDS011;33272;51.922;7.730;2023-06-22T11:46:14;11.07;;;9.97;;
47529;SDS011;33272;51.922;7.730;2023-06-22T11:48:41;11.23;;;10.10;;
47529;SDS011;33272;51.922;7.730;2023-06-22T11:51:08;11.07;;;9.93;;
47529;SDS011;33272;51.922;7.730;2023-06-22T11:53:35;11.97;;;10.57;;
47529;SDS011;33272;51.922;7.730;2023-06-22T11:56:02;11.57;;;9.97;;
47529;SDS011;33272;51.922;7.730;2023-06-22T11:58:29;15.83;;;10.60;;
47529;SDS011;33272;51.922;7.730;2023-06-22T12:00:56;15.93;;;10.50;;
47529;SDS011;33272;51.922;7.730;2023-06-22T12:03:24;14.47;;;9.67;;
47529;SDS011;33272;51.922;7.730;2023-06-22T12:05:51;14.80;;;10.77;;
47529;SDS011;33272;51.922;7.730;2023-06-22T12:08:18;10.87;;;9.23;;
47529;SDS011;33272;51.922;7.730;2023-06-22T12:10:45;12.17;;;10.20;;
47529;SDS011;33272;51.922;7.730;2023-06-22T12:13:12;10.43;;;9.30;;
47529;SDS011;33272;51.922;7.730;2023-06-22T12:15:39;11.17;;;10.10;;
47529;SDS011;33272;51.922;7.730;2023-06-22T12:18:06;11.30;;;9.57;;
47529;SDS011;33272;51.922;7.730;2023-06-22T12:20:35;9.90;;;8.90;;
47529;SDS011;33272;51.922;7.730;2023-06-22T12:23:02;10.27;;;9.27;;
47529;SDS011;33272;51.922;7.730;2023-06-22T12:25:29;14.97;;;10.43;;
47529;SDS011;33272;51.922;7.730;2023-06-22T12:27:56;17.70;;;10.10;;
47529;SDS011;33272;51.922;7.730;2023-06-22T12:30:23;15.00;;;11.07;;
47529;SDS011;33272;51.922;7.730;2023-06-22T12:32:50;30.60;;;13.17;;
47529;SDS011;33272;51.922;7.730;2023-06-22T12:35:17;13.43;;;12.03;;
47529;SDS011;33272;51.922;7.730;2023-06-22T12:37:45;17.03;;;13.17;;
47529;SDS011;33272;51.922;7.730;2023-06-22T12:40:12;16.00;;;13.03;;
47529;SDS011;33272;51.922;7.730;2023-06-22T12:42:39;16.13;;;14.00;;
47529;SDS011;33272;51.922;7.730;2023-06-22T12:45:07;15.90;;;13.83;;
47529;SDS011;33272;51.922;7.730;2023-06-22T12:47:35;15.73;;;13.97;;
47529;SDS011;33272;51.922;7.730;2023-06-22T12:50:02;16.87;;;15.17;;
47529;SDS011;33272;51.922;7.730;2023-06-22T12:52:30;18.60;;;15.17;;
47529;SDS011;33272;51.922;7.730;2023-06-22T12:54:59;19.47;;;15.90;;
47529;SDS011;33272;51.922;7.730;2023-06-22T12:57:26;18.20;;;16.40;;
47529;SDS011;33272;51.922;7.730;2023-06-22T12:59:53;20.40;;;16.17;;
47529;SDS011;33272;51.922;7.730;2023-06-22T13:02:20;18.40;;;16.50;;
47529;SDS011;33272;51.922;7.730;2023-06-22T13:04:47;20.87;;;18.17;;
47529;SDS011;33272;51.922;7.730;2023-06-22T13:07:14;20.70;;;18.70;;
47529;SDS011;33272;51.922;7.730;2023-06-22T13:09:41;22.33;;;19.70;;
47529;SDS011;33272;51.922;7.730;2023-06-22T13:12:11;21.90;;;18.80;;
47529;SDS011;33272;51.922;7.730;2023-06-22T13:14:38;21.10;;;19.00;;
47529;SDS011;33272;51.922;7.730;2023-06-22T13:17:05;21.10;;;18.77;;
47529;SDS011;33272;51.922;7.730;2023-06-22T13:19:32;21.70;;;19.37;;
47529;SDS011;33272;51.922;7.730;2023-06-22T13:21:59;21.17;;;18.87;;
47529;SDS011;33272;51.922;7.730;2023-06-22T13:24:27;20.30;;;18.17;;
47529;SDS011;33272;51.922;7.730;2023-06-22T13:26:54;19.67;;;17.77;;
47529;SDS011;33272;51.922;7.730;2023-06-22T13:29:22;20.03;;;16.80;;
47529;SDS011;33272;51.922;7.730;2023-06-22T13:31:49;15.80;;;14.20;;
47529;SDS011;33272;51.922;7.730;2023-06-22T13:34:16;15.60;;;14.00;;
47529;SDS011;33272;51.922;7.730;2023-06-22T13:36:43;15.63;;;14.03;;
47529;SDS011;33272;51.922;7.730;2023-06-22T13:39:11;15.73;;;14.13;;
47529;SDS011;33272;51.922;7.730;2023-06-22T13:41:38;13.57;;;11.97;;
47529;SDS011;33272;51.922;7.730;2023-06-22T13:44:04;12.60;;;11.33;;
47529;SDS011;33272;51.922;7.730;2023-06-22T13:46:33;12.27;;;10.97;;
47529;SDS011;33272;51.922;7.730;2023-06-22T13:49:00;17.40;;;11.20;;
47529;SDS011;33272;51.922;7.730;2023-06-22T13:51:27;15.17;;;11.97;;
47529;SDS011;33272;51.922;7.730;2023-06-22T13:53:54;12.33;;;11.03;;
47529;SDS011;33272;51.922;7.730;2023-06-22T13:56:20;11.13;;;9.93;;
47529;SDS011;33272;51.922;7.730;2023-06-22T13:58:47;11.37;;;9.63;;
47529;SDS011;33272;51.922;7.730;2023-06-22T14:01:14;13.53;;;10.93;;
47529;SDS011;33272;51.922;7.730;2023-06-22T14:03:43;11.73;;;10.53;;
47529;SDS011;33272;51.922;7.730;2023-06-22T14:06:12;11.63;;;9.90;;
47529;SDS011;33272;51.922;7.730;2023-06-22T14:08:39;11.03;;;9.93;;
47529;SDS011;33272;51.922;7.730;2023-06-22T14:11:05;10.30;;;9.30;;
47529;SDS011;33272;51.922;7.730;2023-06-22T14:13:32;10.87;;;9.87;;
47529;SDS011;33272;51.922;7.730;2023-06-22T14:16:01;12.03;;;10.47;;
47529;SDS011;33272;51.922;7.730;2023-06-22T14:18:29;12.30;;;10.23;;
47529;SDS011;33272;51.922;7.730;2023-06-22T14:20:57;13.00;;;10.07;;
47529;SDS011;33272;51.922;7.730;2023-06-22T14:23:24;12.83;;;11.53;;
47529;SDS011;33272;51.922;7.730;2023-06-22T14:25:54;11.70;;;10.60;;
47529;SDS011;33272;51.922;7.730;2023-06-22T14:28:21;12.93;;;11.53;;
47529;SDS011;33272;51.922;7.730;2023-06-22T14:30:48;13.50;;;12.13;;